createdAt,value
2023-05-25T00:01:01.262Z,7.70
2023-05-25T00:03:53.052Z,7.70
2023-05-25T00:06:45.551Z,7.70
2023-05-25T00:09:34.585Z,7.70
2023-05-25T00:12:23.323Z,7.70
2023-05-25T00:15:13.012Z,7.70
2023-05-25T00:18:01.834Z,7.70
2023-05-25T00:20:50.605Z,7.70
2023-05-25T00:23:40.830Z,7.70
2023-05-25T00:26:29.555Z,7.60
2023-05-25T00:29:18.340Z,7.60
2023-05-25T00:32:07.797Z,7.60
2023-05-25T00:34:56.960Z,7.60
2023-05-25T00:37:45.681Z,7.60
2023-05-25T00:40:36.999Z,7.60
2023-05-25T00:43:25.705Z,7.60
2023-05-25T00:46:17.129Z,7.60
2023-05-25T00:49:06.138Z,7.60
2023-05-25T00:51:55.016Z,7.60
2023-05-25T00:54:44.571Z,7.50
2023-05-25T00:57:38.110Z,7.50
2023-05-25T01:00:27.529Z,7.40
2023-05-25T01:03:22.114Z,7.40
2023-05-25T01:06:16.244Z,7.40
2023-05-25T01:09:07.149Z,7.40
2023-05-25T01:11:58.043Z,7.40
2023-05-25T01:14:49.476Z,7.40
2023-05-25T01:17:39.063Z,7.30
2023-05-25T01:20:30.188Z,7.30
2023-05-25T01:23:22.380Z,7.40
2023-05-25T01:26:17.655Z,7.30
2023-05-25T01:29:07.331Z,7.30
2023-05-25T01:31:57.809Z,7.20
2023-05-25T01:34:48.208Z,7.20
2023-05-25T01:37:38.094Z,7.20
2023-05-25T01:40:29.282Z,7.20
2023-05-25T01:43:18.300Z,7.10
2023-05-25T01:46:15.968Z,7.10
2023-05-25T01:49:22.492Z,7.10
2023-05-25T01:52:19.847Z,7.10
2023-05-25T01:55:13.179Z,7.10
2023-05-25T01:58:04.569Z,7.10
2023-05-25T02:00:53.897Z,7.10
2023-05-25T02:03:43.333Z,7.10
2023-05-25T02:06:32.128Z,7.10
2023-05-25T02:09:20.880Z,7.10
2023-05-25T02:12:10.088Z,7.10
2023-05-25T02:15:00.219Z,7.00
2023-05-25T02:17:48.994Z,7.00
2023-05-25T02:20:38.508Z,7.00
2023-05-25T02:23:27.425Z,7.00
2023-05-25T02:26:16.343Z,7.10
2023-05-25T02:29:05.589Z,7.10
2023-05-25T02:31:56.391Z,7.00
2023-05-25T02:34:45.068Z,7.00
2023-05-25T02:37:33.853Z,7.10
2023-05-25T02:40:22.653Z,7.10
2023-05-25T02:43:11.376Z,7.10
2023-05-25T02:46:00.158Z,7.10
2023-05-25T02:48:50.337Z,7.10
2023-05-25T02:51:39.068Z,7.10
2023-05-25T02:54:27.840Z,7.10
2023-05-25T02:57:17.039Z,7.10
2023-05-25T03:00:07.963Z,7.10
2023-05-25T03:02:56.704Z,7.10
2023-05-25T03:05:47.535Z,7.10
2023-05-25T03:08:36.288Z,7.10
2023-05-25T03:11:25.094Z,7.10
2023-05-25T03:14:14.501Z,7.00
2023-05-25T03:17:03.447Z,7.00
2023-05-25T03:19:52.554Z,7.00
2023-05-25T03:22:43.157Z,7.00
2023-05-25T03:25:32.051Z,7.00
2023-05-25T03:28:20.772Z,7.00
2023-05-25T03:31:09.520Z,6.90
2023-05-25T03:33:58.283Z,6.90
2023-05-25T03:36:47.724Z,6.80
2023-05-25T03:39:37.851Z,6.80
2023-05-25T03:42:26.648Z,6.90
2023-05-25T03:45:15.392Z,6.80
2023-05-25T03:48:04.211Z,6.80
2023-05-25T03:50:53.032Z,6.80
2023-05-25T03:53:41.730Z,6.90
2023-05-25T03:56:32.251Z,6.90
2023-05-25T03:59:21.055Z,6.90
2023-05-25T04:02:09.855Z,6.90
2023-05-25T04:04:58.609Z,6.90
2023-05-25T04:07:47.573Z,6.90
2023-05-25T04:10:36.553Z,6.90
2023-05-25T04:13:26.881Z,6.90
2023-05-25T04:16:15.998Z,6.90
2023-05-25T04:19:04.787Z,7.00
2023-05-25T04:21:53.516Z,7.00
2023-05-25T04:24:42.934Z,7.10
2023-05-25T04:27:31.924Z,7.10
2023-05-25T04:30:22.129Z,7.10
2023-05-25T04:33:12.828Z,7.10
2023-05-25T04:36:01.743Z,7.20
2023-05-25T04:38:52.355Z,7.20
2023-05-25T04:41:41.093Z,7.20
2023-05-25T04:44:30.011Z,7.20
2023-05-25T04:47:20.190Z,7.20
2023-05-25T04:50:10.489Z,7.30
2023-05-25T04:52:59.264Z,7.40
2023-05-25T04:55:48.001Z,7.50
2023-05-25T04:58:36.740Z,7.50
2023-05-25T05:01:26.549Z,7.60
2023-05-25T05:04:18.100Z,7.70
2023-05-25T05:07:08.317Z,7.70
2023-05-25T05:09:57.055Z,7.70
2023-05-25T05:12:45.804Z,7.80
2023-05-25T05:15:34.623Z,7.90
2023-05-25T05:18:23.328Z,8.00
2023-05-25T05:21:13.497Z,8.10
2023-05-25T05:24:02.224Z,8.10
2023-05-25T05:26:58.150Z,8.10
2023-05-25T05:29:47.395Z,8.30
2023-05-25T05:32:36.232Z,8.40
2023-05-25T05:35:25.059Z,8.40
2023-05-25T05:38:15.191Z,8.50
2023-05-25T05:41:04.134Z,8.50
2023-05-25T05:43:52.877Z,8.60
2023-05-25T05:46:41.839Z,8.70
2023-05-25T05:49:31.170Z,8.70
2023-05-25T05:52:20.024Z,8.90
2023-05-25T05:55:11.187Z,9.00
2023-05-25T05:58:00.067Z,8.90
2023-05-25T06:00:48.869Z,8.90
2023-05-25T06:03:38.195Z,8.90
2023-05-25T06:06:27.736Z,8.90
2023-05-25T06:09:16.537Z,8.90
2023-05-25T06:12:07.365Z,9.00
2023-05-25T06:14:56.121Z,9.00
2023-05-25T06:17:44.945Z,9.10
2023-05-25T06:20:33.707Z,9.10
2023-05-25T06:23:22.497Z,9.20
2023-05-25T06:26:11.275Z,9.10
2023-05-25T06:29:02.026Z,9.20
2023-05-25T06:31:50.916Z,9.40
2023-05-25T06:34:39.943Z,9.40
2023-05-25T06:37:35.259Z,9.40
2023-05-25T06:40:24.131Z,9.60
2023-05-25T06:43:12.882Z,9.50
2023-05-25T06:46:03.166Z,9.50
2023-05-25T06:48:51.952Z,9.60
2023-05-25T06:51:40.710Z,9.80
2023-05-25T06:54:29.455Z,10.00
2023-05-25T06:57:18.177Z,10.10
2023-05-25T07:00:08.535Z,10.10
2023-05-25T07:02:58.768Z,10.30
2023-05-25T07:05:47.628Z,10.60
2023-05-25T07:08:36.610Z,10.90
2023-05-25T07:11:25.373Z,11.00
2023-05-25T07:14:14.343Z,11.00
2023-05-25T07:17:03.049Z,10.90
2023-05-25T07:19:53.320Z,10.90
2023-05-25T07:22:42.435Z,10.90
2023-05-25T07:25:31.207Z,11.00
2023-05-25T07:28:23.379Z,11.30
2023-05-25T07:31:12.710Z,11.60
2023-05-25T07:34:01.488Z,11.70
2023-05-25T07:36:52.225Z,11.80
2023-05-25T07:39:41.230Z,11.80
2023-05-25T07:42:35.646Z,12.00
2023-05-25T07:45:24.483Z,12.00
2023-05-25T07:48:13.267Z,12.00
2023-05-25T07:51:02.108Z,12.00
2023-05-25T07:53:54.225Z,12.10
2023-05-25T07:56:43.039Z,12.10
2023-05-25T07:59:31.778Z,12.30
2023-05-25T08:02:20.747Z,12.40
2023-05-25T08:05:10.592Z,12.70
2023-05-25T08:07:59.336Z,12.80
2023-05-25T08:10:49.517Z,13.00
2023-05-25T08:13:38.256Z,13.10
2023-05-25T08:16:28.294Z,13.20
2023-05-25T08:19:19.115Z,13.20
2023-05-25T08:22:10.226Z,13.10
2023-05-25T08:24:59.200Z,13.10
2023-05-25T08:27:49.744Z,13.30
2023-05-25T08:30:38.506Z,13.40
2023-05-25T08:33:29.407Z,13.60
2023-05-25T08:36:18.186Z,13.80
2023-05-25T08:39:08.440Z,13.80
2023-05-25T08:41:57.243Z,13.80
2023-05-25T08:44:47.594Z,13.70
2023-05-25T08:47:42.038Z,13.60
2023-05-25T08:50:34.198Z,13.70
2023-05-25T08:53:23.944Z,13.60
2023-05-25T08:56:19.373Z,13.70
2023-05-25T09:06:00.767Z,14.00
2023-05-25T09:45:50.104Z,14.30
2023-05-25T11:44:45.007Z,18.50
2023-05-25T15:36:08.873Z,20.60
2023-05-25T15:38:57.649Z,20.60
2023-05-25T15:41:46.588Z,20.60
2023-05-25T15:44:35.475Z,20.50
2023-05-25T15:47:25.044Z,20.30
2023-05-25T15:50:13.939Z,20.20
2023-05-25T15:53:04.167Z,20.00
2023-05-25T15:55:52.884Z,19.90
2023-05-25T15:58:41.775Z,19.80
2023-05-25T16:01:32.309Z,19.60
2023-05-25T16:04:21.161Z,19.60
2023-05-25T16:07:09.991Z,19.70
2023-05-25T16:10:00.146Z,19.50
2023-05-25T16:12:48.856Z,19.50
2023-05-25T16:15:37.545Z,19.50
2023-05-25T16:18:26.292Z,19.60
2023-05-25T16:21:15.206Z,19.60
2023-05-25T16:24:03.932Z,19.60
2023-05-25T16:26:54.226Z,19.40
2023-05-25T16:29:42.950Z,19.40
2023-05-25T16:32:32.829Z,19.40
2023-05-25T16:35:21.827Z,19.30
2023-05-25T16:38:10.787Z,19.10
2023-05-25T16:40:59.527Z,19.00
2023-05-25T16:43:49.677Z,19.00
2023-05-25T16:46:38.699Z,19.00
2023-05-25T16:49:27.504Z,19.10
2023-05-25T16:52:16.365Z,19.10
2023-05-25T16:55:05.606Z,18.90
2023-05-25T16:57:54.321Z,18.80
2023-05-25T17:00:44.404Z,18.80
2023-05-25T17:03:34.564Z,18.70
2023-05-25T17:06:23.420Z,18.80
2023-05-25T17:09:12.583Z,18.80
2023-05-25T17:12:01.830Z,18.60
2023-05-25T17:14:50.611Z,18.60
2023-05-25T17:17:41.476Z,18.50
2023-05-25T17:20:30.227Z,18.50
2023-05-25T17:23:18.976Z,18.50
2023-05-25T17:26:07.682Z,18.40
2023-05-25T17:28:57.929Z,18.40
2023-05-25T17:31:48.753Z,18.30
2023-05-25T17:34:39.280Z,18.30
2023-05-25T17:37:28.006Z,18.20
2023-05-25T17:40:17.058Z,18.20
2023-05-25T17:43:05.808Z,18.10
2023-05-25T17:45:54.661Z,18.00
2023-05-25T17:48:43.405Z,17.90
2023-05-25T17:51:33.557Z,17.80
2023-05-25T17:54:25.935Z,17.80
2023-05-25T17:57:14.808Z,17.70
2023-05-25T18:00:03.914Z,17.60
2023-05-25T18:02:52.792Z,17.50
2023-05-25T18:05:41.634Z,17.50
2023-05-25T18:08:31.710Z,17.30
2023-05-25T18:11:20.564Z,17.30
2023-05-25T18:14:09.320Z,17.20
2023-05-25T18:16:58.214Z,17.20
2023-05-25T18:19:46.980Z,17.00
2023-05-25T18:22:35.704Z,16.90
2023-05-25T18:25:26.297Z,16.90
2023-05-25T18:28:15.328Z,16.80
2023-05-25T18:31:04.127Z,16.70
2023-05-25T18:33:53.030Z,16.70
2023-05-25T18:36:47.266Z,16.60
2023-05-25T18:39:36.013Z,16.50
2023-05-25T18:42:26.158Z,16.40
2023-05-25T18:45:15.490Z,16.30
2023-05-25T18:48:07.697Z,16.30
2023-05-25T18:50:56.710Z,16.10
2023-05-25T18:53:45.955Z,16.00
2023-05-25T18:56:34.691Z,15.90
2023-05-25T18:59:24.818Z,15.80
2023-05-25T19:02:13.707Z,15.60
2023-05-25T19:05:02.509Z,15.50
2023-05-25T19:07:59.278Z,15.40
2023-05-25T19:10:48.528Z,15.20
2023-05-25T19:13:37.249Z,15.10
2023-05-25T19:16:27.441Z,15.00
2023-05-25T19:19:16.246Z,14.90
2023-05-25T19:22:04.978Z,14.70
2023-05-25T19:25:00.781Z,14.60
2023-05-25T19:27:50.071Z,14.50
